Time;durP1;ratioP1;P1;durP2;ratioP2;P2;SDS_P1;SDS_P2;PMS_P1;PMS_P2;Temp;Humidity;BMP_temperature;BMP_pressure;BME280_temperature;BME280_humidity;BME280_pressure;Samples;Min_cycle;Max_cycle;Signal;HPM_P1;HPM_P2
2021/10/08 00:00:59;;;;;;;10.93;7.60;;;14.40;99.90;14.50;101963.00;;;;4976213;28;115987;-67
2021/10/08 00:03:25;;;;;;;15.27;9.00;;;14.40;99.90;14.50;101968.00;;;;4958714;28;88844;-66
2021/10/08 00:05:50;;;;;;;9.80;7.20;;;14.40;99.90;14.40;101968.00;;;;4965958;28;108990;-67
2021/10/08 00:08:16;;;;;;;14.03;7.73;;;14.40;99.90;14.40;101958.00;;;;4956476;28;117975;-66
2021/10/08 00:10:42;;;;;;;11.30;7.60;;;14.40;99.90;14.40;101958.00;;;;4957169;28;88538;-66
2021/10/08 00:13:07;;;;;;;12.53;8.03;;;14.40;99.90;14.40;101956.00;;;;4937903;28;108580;-68
2021/10/08 00:15:33;;;;;;;12.70;8.40;;;14.30;99.90;14.40;101959.00;;;;4938027;28;106846;-66
2021/10/08 00:17:59;;;;;;;11.47;7.93;;;14.30;99.90;14.40;101960.00;;;;4941607;28;116676;-66
2021/10/08 00:20:24;;;;;;;12.07;8.30;;;14.30;99.90;14.40;101961.00;;;;4977133;28;89923;-67
2021/10/08 00:22:50;;;;;;;12.33;8.67;;;14.30;99.90;14.30;101962.00;;;;4976431;28;110689;-66
2021/10/08 00:25:15;;;;;;;16.70;9.43;;;14.30;99.90;14.30;101961.00;;;;4976404;28;108606;-66
2021/10/08 00:27:41;;;;;;;11.70;8.40;;;14.20;99.90;14.30;101968.00;;;;4975598;28;117407;-66
2021/10/08 00:30:07;;;;;;;15.33;9.33;;;14.20;99.90;14.30;101966.00;;;;4975400;28;117235;-66
2021/10/08 00:32:33;;;;;;;15.47;9.63;;;14.30;99.90;14.30;101971.00;;;;4958957;28;88086;-66
2021/10/08 00:34:59;;;;;;;14.60;8.87;;;14.20;99.90;14.30;101964.00;;;;4976606;28;108077;-66
2021/10/08 00:37:24;;;;;;;15.47;9.90;;;14.20;99.90;14.20;101963.00;;;;4990036;28;118120;-67
2021/10/08 00:39:50;;;;;;;11.27;8.73;;;14.20;99.90;14.20;101964.00;;;;4990227;28;87548;-67
2021/10/08 00:42:22;;;;;;;15.70;9.37;;;14.20;99.90;14.20;101962.00;;;;4982157;28;109595;-67
2021/10/08 00:44:47;;;;;;;9.43;7.40;;;14.10;99.90;14.20;101969.00;;;;4959201;28;87400;-67
2021/10/08 00:47:14;;;;;;;14.17;8.73;;;14.10;99.90;14.10;101959.00;;;;4960361;28;117225;-66
2021/10/08 00:49:40;;;;;;;14.63;8.63;;;14.10;99.90;14.10;101952.00;;;;4956315;28;99801;-66
2021/10/08 00:52:06;;;;;;;14.67;9.47;;;14.10;99.90;14.10;101954.00;;;;4956469;28;92243;-66
2021/10/08 00:54:32;;;;;;;15.93;9.60;;;14.00;99.90;14.00;101950.00;;;;4955977;28;100807;-67
2021/10/08 00:56:58;;;;;;;15.70;8.37;;;14.00;99.90;14.00;101951.00;;;;4956214;28;116076;-66
2021/10/08 00:59:28;;;;;;;14.57;8.97;;;14.00;99.90;14.00;101954.00;;;;4955363;28;88481;-66
2021/10/08 01:01:55;;;;;;;12.00;8.93;;;13.90;99.90;13.90;101954.00;;;;4956928;28;87851;-67
2021/10/08 01:04:24;;;;;;;14.30;9.30;;;13.90;99.90;13.90;101955.00;;;;4957495;28;87681;-66
2021/10/08 01:06:50;;;;;;;13.60;8.53;;;13.80;99.90;13.80;101958.00;;;;4956612;28;88944;-66
2021/10/08 01:09:16;;;;;;;16.57;9.53;;;13.80;99.90;13.70;101958.00;;;;4956441;28;93100;-65
2021/10/08 01:11:43;;;;;;;13.77;8.87;;;13.70;99.90;13.70;101944.00;;;;4955514;28;111506;-66
2021/10/08 01:14:09;;;;;;;12.53;8.53;;;13.70;99.90;13.60;101948.00;;;;4946121;28;87965;-66
2021/10/08 01:16:35;;;;;;;13.73;8.33;;;13.60;99.90;13.50;101946.00;;;;4976377;28;88682;-67
2021/10/08 01:19:01;;;;;;;19.63;9.70;;;13.50;99.90;13.40;101952.00;;;;4976281;28;87946;-66
2021/10/08 01:21:27;;;;;;;16.07;8.87;;;13.40;99.90;13.30;101955.00;;;;4976634;28;87821;-66
2021/10/08 01:23:53;;;;;;;13.77;9.20;;;13.40;99.90;13.30;101953.00;;;;4957943;28;87896;-66
2021/10/08 01:26:19;;;;;;;13.67;8.07;;;13.30;99.90;13.20;101954.00;;;;4975300;28;115302;-66
2021/10/08 01:28:44;;;;;;;14.23;8.63;;;13.20;99.90;13.20;101964.00;;;;4975857;28;88737;-66
2021/10/08 01:31:10;;;;;;;15.13;9.73;;;13.20;99.90;13.10;101958.00;;;;4975885;28;88725;-67
2021/10/08 01:33:36;;;;;;;15.57;9.20;;;13.10;99.90;13.10;101952.00;;;;4976180;28;95662;-66
2021/10/08 01:36:02;;;;;;;13.43;9.03;;;13.10;99.90;13.10;101955.00;;;;4960221;28;118686;-65
2021/10/08 01:38:28;;;;;;;19.57;10.70;;;13.10;99.90;13.00;101950.00;;;;4955820;28;102290;-68
2021/10/08 01:40:53;;;;;;;15.70;10.63;;;13.00;99.90;13.00;101957.00;;;;4955390;28;88986;-65
2021/10/08 01:43:19;;;;;;;13.43;9.03;;;13.00;99.90;13.00;101956.00;;;;4955317;28;108225;-67
2021/10/08 01:45:45;;;;;;;16.47;10.50;;;13.00;99.90;13.00;101954.00;;;;4955080;28;117001;-67
2021/10/08 01:48:10;;;;;;;20.00;11.00;;;13.00;99.90;13.00;101951.00;;;;4955398;28;89175;-65
2021/10/08 01:50:36;;;;;;;20.37;11.93;;;13.00;99.90;13.00;101944.00;;;;4955550;28;113288;-67
2021/10/08 01:53:02;;;;;;;17.60;11.37;;;12.90;99.90;12.90;101953.00;;;;4955721;28;87456;-66
2021/10/08 01:55:28;;;;;;;16.50;10.27;;;12.90;99.90;12.90;101956.00;;;;4955994;28;90845;-68
2021/10/08 01:57:53;;;;;;;21.13;10.87;;;12.90;99.90;12.90;101951.00;;;;4966665;28;88610;-67
2021/10/08 02:00:19;;;;;;;20.40;10.10;;;12.90;99.90;12.90;101948.00;;;;4974524;28;113789;-67
2021/10/08 02:02:45;;;;;;;20.77;11.63;;;12.90;99.90;12.90;101945.00;;;;4956009;28;108538;-66
2021/10/08 02:05:11;;;;;;;16.57;12.13;;;12.90;99.90;12.90;101953.00;;;;4973901;28;95523;-66
2021/10/08 02:07:37;;;;;;;17.87;10.60;;;12.90;99.90;12.90;101961.00;;;;4973992;28;117782;-66
2021/10/08 02:10:04;;;;;;;18.50;10.93;;;12.80;99.90;12.80;101970.00;;;;4963015;28;109237;-66
2021/10/08 02:12:30;;;;;;;18.57;11.67;;;12.80;99.90;12.80;101966.00;;;;4955521;28;91774;-68
2021/10/08 02:14:56;;;;;;;18.33;11.63;;;12.80;99.90;12.80;101972.00;;;;4923048;28;115513;-67
2021/10/08 02:17:21;;;;;;;22.63;12.03;;;12.80;99.90;12.80;101966.00;;;;4938976;28;116416;-66
2021/10/08 02:19:47;;;;;;;23.90;11.97;;;12.80;99.90;12.80;101964.00;;;;4957870;28;91009;-66
2021/10/08 02:22:13;;;;;;;17.77;11.93;;;12.80;99.90;12.80;101964.00;;;;4967709;28;108468;-65
2021/10/08 02:24:38;;;;;;;26.47;12.13;;;12.70;99.90;12.80;101971.00;;;;4958728;28;97431;-68
2021/10/08 02:27:04;;;;;;;18.03;12.03;;;12.80;99.90;12.80;101964.00;;;;4976991;28;117419;-66
2021/10/08 02:29:30;;;;;;;22.13;12.23;;;12.80;99.90;12.80;101973.00;;;;4976075;28;113273;-66
2021/10/08 02:31:56;;;;;;;22.43;12.13;;;12.70;99.90;12.80;101967.00;;;;4978195;28;108679;-67
2021/10/08 02:34:22;;;;;;;25.00;13.70;;;12.80;99.90;12.80;101967.00;;;;4977435;28;98285;-66
2021/10/08 02:36:47;;;;;;;25.67;12.60;;;12.80;99.90;12.80;101973.00;;;;4975090;28;117363;-68
2021/10/08 02:39:13;;;;;;;21.73;12.27;;;12.80;99.90;12.80;101973.00;;;;4938275;28;112514;-67
2021/10/08 02:41:39;;;;;;;25.40;12.83;;;12.80;99.90;12.80;101965.00;;;;4958222;28;87870;-66
2021/10/08 02:44:05;;;;;;;21.97;12.27;;;12.70;99.90;12.80;101975.00;;;;4957034;28;116882;-67
2021/10/08 02:46:31;;;;;;;23.47;12.63;;;12.80;99.90;12.80;101971.00;;;;4958615;28;87859;-65
2021/10/08 02:48:56;;;;;;;23.67;13.23;;;12.80;99.90;12.80;101971.00;;;;4958036;28;87715;-67
2021/10/08 02:51:22;;;;;;;27.33;13.10;;;12.70;99.90;12.80;101982.00;;;;4957415;28;108925;-66
2021/10/08 02:53:48;;;;;;;21.27;13.67;;;12.70;99.90;12.80;101989.00;;;;4956462;28;118945;-67
2021/10/08 02:56:13;;;;;;;21.23;12.17;;;12.70;99.90;12.80;101979.00;;;;4956164;28;118682;-67
2021/10/08 02:58:39;;;;;;;22.10;13.53;;;12.80;99.90;12.80;101991.00;;;;4957711;28;87852;-65
2021/10/08 03:01:05;;;;;;;22.03;11.93;;;12.80;99.90;12.80;101984.00;;;;4958549;28;87709;-66
2021/10/08 03:03:31;;;;;;;22.60;13.27;;;12.70;99.90;12.80;101978.00;;;;4956597;28;116645;-66
2021/10/08 03:05:57;;;;;;;15.10;11.23;;;12.80;99.90;12.80;101976.00;;;;4969496;28;117356;-67
2021/10/08 03:08:22;;;;;;;22.07;12.23;;;12.70;99.90;12.70;101977.00;;;;4976730;28;113266;-65
2021/10/08 03:10:48;;;;;;;19.50;11.70;;;12.70;99.90;12.80;101983.00;;;;4977385;28;107810;-65
2021/10/08 03:13:14;;;;;;;17.33;12.90;;;12.70;99.90;12.80;102000.00;;;;4976280;28;117633;-66
2021/10/08 03:15:39;;;;;;;22.10;13.77;;;12.80;99.90;12.80;101992.00;;;;4976112;28;117445;-66
2021/10/08 03:18:05;;;;;;;32.17;12.57;;;12.80;99.90;12.80;101982.00;;;;4975493;28;104246;-67
2021/10/08 03:20:32;;;;;;;21.80;12.40;;;12.70;99.90;12.80;101992.00;;;;4976746;28;108623;-65
2021/10/08 03:22:57;;;;;;;21.60;13.03;;;12.80;99.90;12.80;102000.00;;;;4976231;28;89064;-66
2021/10/08 03:25:23;;;;;;;18.90;12.17;;;12.70;99.90;12.80;101999.00;;;;4977554;28;88682;-67
2021/10/08 03:27:49;;;;;;;21.23;13.27;;;12.80;99.90;12.80;101978.00;;;;4977497;28;94412;-65
2021/10/08 03:30:15;;;;;;;24.27;13.07;;;12.70;99.90;12.80;101997.00;;;;4977456;28;90208;-66
2021/10/08 03:32:42;;;;;;;18.80;11.97;;;12.80;99.90;12.80;101989.00;;;;4973053;28;88192;-66
2021/10/08 03:35:09;;;;;;;20.13;13.50;;;12.80;99.90;12.80;101994.00;;;;4957349;28;88066;-66
2021/10/08 03:37:49;;;;;;;19.50;11.77;;;12.80;99.90;12.80;101987.00;;;;4957870;28;87600;-66
2021/10/08 03:40:24;;;;;;;21.57;11.53;;;12.80;99.90;12.80;101981.00;;;;4957003;28;87913;-66
2021/10/08 03:42:51;;;;;;;18.03;12.73;;;12.80;99.90;12.80;101989.00;;;;4956913;28;89148;-66
2021/10/08 03:45:16;;;;;;;17.80;12.23;;;12.80;99.90;12.80;101989.00;;;;4956999;28;90028;-65
2021/10/08 03:48:02;;;;;;;20.50;11.87;;;12.80;99.90;12.80;101978.00;;;;4957350;28;87803;-66
2021/10/08 03:50:28;;;;;;;20.87;12.53;;;12.70;99.90;12.80;101975.00;;;;4938706;28;87667;-68
2021/10/08 03:52:54;;;;;;;32.77;13.57;;;12.80;99.90;12.80;101978.00;;;;4937200;28;116161;-67
2021/10/08 03:55:20;;;;;;;19.10;12.20;;;12.70;99.90;12.70;101981.00;;;;4956708;28;88999;-67
2021/10/08 03:57:46;;;;;;;28.10;12.83;;;12.70;99.90;12.70;101995.00;;;;4960844;28;87908;-65
2021/10/08 04:00:12;;;;;;;23.37;12.73;;;12.70;99.90;12.70;101991.00;;;;4958114;28;86948;-67
2021/10/08 04:02:38;;;;;;;20.23;13.27;;;12.60;99.90;12.70;101990.00;;;;4958601;28;88579;-67
2021/10/08 04:05:04;;;;;;;24.40;13.03;;;12.70;99.90;12.70;101994.00;;;;4976436;28;88137;-66
2021/10/08 04:07:30;;;;;;;16.00;11.57;;;12.70;99.90;12.70;101996.00;;;;4976802;28;88579;-65
2021/10/08 04:09:56;;;;;;;19.03;11.63;;;12.70;99.90;12.70;101997.00;;;;4976029;28;99551;-67
2021/10/08 04:12:21;;;;;;;20.97;11.40;;;12.70;99.90;12.80;101996.00;;;;4976621;28;88783;-66
2021/10/08 04:14:47;;;;;;;21.70;12.07;;;12.70;99.90;12.80;101997.00;;;;4975708;28;94268;-66
2021/10/08 04:17:13;;;;;;;24.10;11.90;;;12.70;99.90;12.80;102001.00;;;;4957560;28;114018;-68
2021/10/08 04:19:38;;;;;;;18.47;11.70;;;12.70;99.90;12.80;102006.00;;;;4956792;28;108838;-68
2021/10/08 04:22:04;;;;;;;28.70;13.60;;;12.80;99.90;12.80;102003.00;;;;4975720;28;117982;-67
2021/10/08 04:24:30;;;;;;;17.43;12.10;;;12.80;99.90;12.80;101998.00;;;;4975558;28;118228;-68
2021/10/08 04:26:55;;;;;;;27.67;13.20;;;12.70;99.90;12.80;101998.00;;;;4975586;28;111980;-67
2021/10/08 04:29:21;;;;;;;19.00;11.93;;;12.70;99.90;12.80;102009.00;;;;4962963;28;107756;-67
2021/10/08 04:31:47;;;;;;;21.17;12.23;;;12.80;99.90;12.80;102010.00;;;;4955330;28;118639;-66
2021/10/08 04:34:12;;;;;;;15.33;11.30;;;12.80;99.90;12.80;102012.00;;;;4971669;28;118803;-66
2021/10/08 04:36:40;;;;;;;20.43;11.07;;;12.70;99.90;12.80;102006.00;;;;4979241;28;111072;-66
2021/10/08 04:39:07;;;;;;;17.53;11.30;;;12.80;99.90;12.80;102011.00;;;;4995926;28;87362;-66
2021/10/08 04:41:32;;;;;;;24.40;12.57;;;12.80;99.90;12.80;102017.00;;;;4981591;28;98293;-67
2021/10/08 04:43:58;;;;;;;19.03;11.17;;;12.80;99.90;12.80;102014.00;;;;4971509;28;118512;-67
2021/10/08 04:46:24;;;;;;;19.43;11.90;;;12.80;99.90;12.80;102026.00;;;;4936899;28;112609;-66
2021/10/08 04:48:49;;;;;;;17.90;12.00;;;13.30;99.90;12.80;102022.00;;;;4956189;28;96614;-66
2021/10/08 04:51:15;;;;;;;18.50;11.77;;;12.70;99.90;12.80;102022.00;;;;4955857;28;118415;-67
2021/10/08 04:53:41;;;;;;;20.60;11.77;;;12.70;99.90;12.80;102025.00;;;;4955002;28;117184;-67
2021/10/08 04:56:07;;;;;;;20.77;12.00;;;12.70;99.90;12.80;102028.00;;;;4956341;28;112664;-66
2021/10/08 04:58:32;;;;;;;21.97;11.97;;;12.70;99.90;12.70;102032.00;;;;4921491;28;87994;-66
2021/10/08 05:00:58;;;;;;;24.87;12.47;;;12.80;99.90;12.70;102030.00;;;;4954681;28;118212;-68
2021/10/08 05:03:24;;;;;;;16.50;11.17;;;12.70;99.90;12.70;102032.00;;;;4955285;28;115205;-66
2021/10/08 05:05:51;;;;;;;17.67;10.77;;;12.70;99.90;12.70;102025.00;;;;4956239;28;87921;-66
2021/10/08 05:08:21;;;;;;;16.40;10.87;;;12.70;99.90;12.70;102024.00;;;;4955882;28;87866;-66
2021/10/08 05:10:48;;;;;;;16.27;11.43;;;12.70;99.90;12.70;102022.00;;;;4955444;28;88760;-66
2021/10/08 05:13:14;;;;;;;18.93;11.40;;;12.70;99.90;12.70;102034.00;;;;4955690;28;95967;-66
2021/10/08 05:15:40;;;;;;;19.83;10.23;;;12.60;99.90;12.70;102030.00;;;;4937664;28;87723;-66
2021/10/08 05:18:06;;;;;;;17.00;11.63;;;12.70;99.90;12.70;102031.00;;;;4936268;28;103121;-67
2021/10/08 05:20:33;;;;;;;18.00;10.03;;;12.70;99.90;12.70;102040.00;;;;4937118;28;88939;-66
2021/10/08 05:22:59;;;;;;;18.33;12.53;;;12.60;99.90;12.70;102033.00;;;;4956942;28;88673;-66
2021/10/08 05:25:25;;;;;;;17.73;12.40;;;12.60;99.90;12.70;102038.00;;;;4955924;28;112388;-66
2021/10/08 05:27:51;;;;;;;21.40;12.40;;;12.60;99.90;12.70;102043.00;;;;4956142;28;87854;-66
2021/10/08 05:30:16;;;;;;;12.63;11.10;;;12.60;99.90;12.70;102037.00;;;;4955055;28;104277;-66
2021/10/08 05:32:42;;;;;;;23.70;11.70;;;12.60;99.90;12.60;102044.00;;;;4956345;28;117928;-67
2021/10/08 05:35:12;;;;;;;20.40;10.77;;;12.60;99.90;12.60;102041.00;;;;4955436;28;87761;-67
2021/10/08 05:37:38;;;;;;;20.63;12.27;;;12.60;99.90;12.60;102052.00;;;;4937913;28;86970;-67
2021/10/08 05:40:12;;;;;;;18.17;11.83;;;12.60;99.90;12.60;102049.00;;;;4953942;28;118218;-66
2021/10/08 05:42:37;;;;;;;17.87;13.03;;;12.60;99.90;12.60;102052.00;;;;4955531;28;88361;-67
2021/10/08 05:45:04;;;;;;;20.50;12.77;;;12.60;99.90;12.60;102053.00;;;;4953906;28;109909;-66
2021/10/08 05:47:29;;;;;;;23.73;12.23;;;12.60;99.90;12.60;102057.00;;;;4955010;28;87758;-66
2021/10/08 05:49:55;;;;;;;18.57;12.60;;;12.60;99.90;12.60;102057.00;;;;4954019;28;117930;-66
2021/10/08 05:52:21;;;;;;;20.33;12.77;;;12.60;99.90;12.60;102062.00;;;;4963268;28;117761;-67
2021/10/08 05:54:47;;;;;;;20.33;11.63;;;12.50;99.90;12.60;102056.00;;;;4974138;28;112902;-68
2021/10/08 05:57:12;;;;;;;18.00;11.30;;;12.50;99.90;12.60;102073.00;;;;4975932;28;87629;-66
2021/10/08 05:59:39;;;;;;;23.77;12.77;;;12.50;99.90;12.60;102064.00;;;;4973615;28;116167;-66
2021/10/08 06:02:04;;;;;;;23.10;13.03;;;12.60;99.90;12.60;102076.00;;;;4975561;28;88507;-66
2021/10/08 06:04:30;;;;;;;19.87;10.97;;;12.50;99.90;12.60;102078.00;;;;4954765;28;113926;-67
2021/10/08 06:06:56;;;;;;;18.13;11.40;;;12.70;99.90;12.60;102063.00;;;;4956126;28;88026;-66
2021/10/08 06:09:22;;;;;;;26.67;11.07;;;12.50;99.90;12.60;102072.00;;;;4973307;28;117402;-66
2021/10/08 06:11:47;;;;;;;20.20;11.73;;;12.50;99.90;12.60;102059.00;;;;4974278;28;118665;-66
2021/10/08 06:14:13;;;;;;;19.40;12.40;;;12.50;99.90;12.60;102082.00;;;;4974797;28;93909;-65
2021/10/08 06:16:39;;;;;;;18.10;11.27;;;12.50;99.90;12.60;102072.00;;;;4973839;28;109565;-65
2021/10/08 06:19:04;;;;;;;19.50;11.67;;;12.60;99.90;12.60;102073.00;;;;4973215;28;116474;-66
2021/10/08 06:21:30;;;;;;;18.60;11.63;;;12.60;99.90;12.60;102074.00;;;;4972862;28;117336;-66
2021/10/08 06:23:56;;;;;;;20.30;12.10;;;12.60;99.90;12.60;102080.00;;;;4973664;28;113361;-65
2021/10/08 06:26:21;;;;;;;20.97;10.70;;;12.60;99.90;12.60;102094.00;;;;4973756;28;109332;-67
2021/10/08 06:28:47;;;;;;;21.60;11.93;;;12.60;99.90;12.60;102081.00;;;;4973786;28;118402;-66
2021/10/08 06:31:13;;;;;;;20.70;11.87;;;12.60;99.90;12.60;102090.00;;;;4973844;28;117802;-66
2021/10/08 06:33:39;;;;;;;29.33;15.07;;;12.60;99.90;12.60;102087.00;;;;4973146;28;111345;-67
2021/10/08 06:36:05;;;;;;;19.20;10.73;;;12.60;99.90;12.70;102090.00;;;;4974637;28;106822;-66
2021/10/08 06:38:31;;;;;;;17.23;11.80;;;12.60;99.90;12.70;102087.00;;;;4967221;28;89325;-66
2021/10/08 06:40:57;;;;;;;22.17;14.10;;;12.70;99.90;12.80;102085.00;;;;4954107;28;117175;-67
2021/10/08 06:43:22;;;;;;;22.80;14.23;;;12.70;99.90;12.80;102087.00;;;;4968354;28;113485;-66
2021/10/08 06:45:48;;;;;;;22.97;13.13;;;12.70;99.90;12.80;102077.00;;;;4955080;28;103480;-65
2021/10/08 06:48:14;;;;;;;22.60;14.03;;;12.70;99.90;12.80;102084.00;;;;4962872;28;105992;-65
2021/10/08 06:50:40;;;;;;;27.80;15.70;;;12.70;99.90;12.90;102084.00;;;;4954084;28;117119;-67
2021/10/08 06:53:06;;;;;;;24.40;14.07;;;12.80;99.90;13.00;102078.00;;;;4953407;28;113494;-66
2021/10/08 06:55:31;;;;;;;21.53;12.37;;;12.80;99.90;13.10;102090.00;;;;4955141;28;87949;-67
2021/10/08 06:57:57;;;;;;;18.47;12.13;;;13.00;99.90;13.30;102098.00;;;;4954207;28;116814;-67
2021/10/08 07:00:23;;;;;;;29.43;14.20;;;13.10;99.90;13.40;102095.00;;;;4942318;28;117450;-67
2021/10/08 07:02:50;;;;;;;17.17;11.87;;;13.20;99.90;13.60;102100.00;;;;4958177;28;87614;-67
2021/10/08 07:05:18;;;;;;;29.43;14.40;;;13.40;99.90;13.80;102095.00;;;;4969349;28;88123;-67
2021/10/08 07:07:44;;;;;;;19.97;12.63;;;13.60;99.90;14.00;102090.00;;;;4975053;28;88623;-67
2021/10/08 07:10:10;;;;;;;20.90;13.10;;;13.80;99.90;14.10;102103.00;;;;4957052;28;88134;-67
2021/10/08 07:12:36;;;;;;;20.13;13.20;;;13.90;99.90;14.30;102113.00;;;;4962175;28;87495;-66
2021/10/08 07:15:05;;;;;;;27.77;12.73;;;14.10;99.90;14.40;102106.00;;;;4959189;28;104427;-67
2021/10/08 07:17:31;;;;;;;22.27;13.13;;;14.30;99.90;14.50;102107.00;;;;4978085;28;88113;-67
2021/10/08 07:19:56;;;;;;;25.10;15.37;;;14.40;99.90;14.70;102114.00;;;;4977455;28;87806;-66
2021/10/08 07:22:22;;;;;;;16.50;11.93;;;14.50;99.90;14.70;102118.00;;;;4976426;28;112861;-67
2021/10/08 07:24:49;;;;;;;20.27;12.87;;;14.50;99.90;14.70;102102.00;;;;4976318;28;108605;-66
2021/10/08 07:27:18;;;;;;;24.57;14.13;;;14.60;99.90;14.80;102106.00;;;;4977274;28;87957;-66
2021/10/08 07:29:43;;;;;;;21.90;13.57;;;14.90;99.90;14.80;102116.00;;;;4973940;28;111365;-65
2021/10/08 07:32:09;;;;;;;23.13;12.97;;;14.70;99.90;15.00;102111.00;;;;4976803;28;111869;-68
2021/10/08 07:34:36;;;;;;;28.27;13.73;;;14.80;99.90;15.20;102110.00;;;;4975706;28;105469;-66
2021/10/08 07:37:02;;;;;;;21.47;13.47;;;15.00;99.90;15.30;102118.00;;;;4977104;28;87697;-66
2021/10/08 07:39:28;;;;;;;20.00;13.70;;;15.10;99.90;15.50;102113.00;;;;4974995;28;97077;-67
2021/10/08 07:41:53;;;;;;;17.03;12.37;;;15.30;99.90;15.70;102125.00;;;;4971173;28;112364;-67
2021/10/08 07:44:19;;;;;;;18.05;12.10;;;15.50;99.90;15.90;102125.00;;;;4967027;28;109367;-67
2021/10/08 07:46:45;;;;;;;16.30;11.45;;;15.70;99.90;16.10;102136.00;;;;4956936;28;88814;-66
2021/10/08 07:49:10;;;;;;;18.67;12.13;;;15.90;99.90;16.20;102131.00;;;;4971495;28;118560;-67
2021/10/08 07:51:36;;;;;;;14.32;11.20;;;16.00;99.90;16.30;102130.00;;;;4967790;28;113037;-67
2021/10/08 07:54:03;;;;;;;19.83;11.57;;;16.10;99.90;16.40;102134.00;;;;4958357;28;87674;-65
2021/10/08 07:56:29;;;;;;;19.85;13.25;;;16.20;99.90;16.50;102142.00;;;;4975743;28;88945;-67
2021/10/08 07:58:55;;;;;;;19.20;10.68;;;16.30;99.90;16.70;102141.00;;;;4975148;28;117504;-66
2021/10/08 08:01:20;;;;;;;18.42;11.05;;;16.40;99.90;16.90;102139.00;;;;4961050;28;113423;-67
2021/10/08 08:03:46;;;;;;;21.10;11.48;;;16.60;99.90;17.10;102148.00;;;;4969118;28;105287;-66
2021/10/08 08:06:12;;;;;;;23.80;12.20;;;16.90;99.90;17.20;102147.00;;;;4975275;28;117795;-67
2021/10/08 08:08:38;;;;;;;19.63;11.68;;;17.00;98.30;17.30;102150.00;;;;4979593;28;98000;-65
2021/10/08 08:11:03;;;;;;;22.98;13.32;;;17.10;98.50;17.60;102153.00;;;;4969750;28;113693;-67
2021/10/08 08:13:29;;;;;;;23.02;14.43;;;17.30;97.50;17.70;102148.00;;;;4976316;28;108214;-67
2021/10/08 08:15:55;;;;;;;21.05;11.80;;;17.50;95.20;17.70;102153.00;;;;4976496;28;88431;-66
2021/10/08 08:18:21;;;;;;;17.20;12.02;;;17.50;94.50;17.80;102147.00;;;;4975199;28;87874;-67
2021/10/08 08:20:46;;;;;;;21.58;12.43;;;17.60;94.00;17.90;102157.00;;;;4975640;28;87719;-66
2021/10/08 08:23:12;;;;;;;21.67;12.23;;;17.60;93.70;18.00;102156.00;;;;4975713;28;106559;-67
2021/10/08 08:25:38;;;;;;;16.50;11.77;;;17.80;92.90;18.10;102151.00;;;;4973625;28;117748;-67
2021/10/08 08:28:04;;;;;;;22.20;11.65;;;17.80;90.90;18.10;102148.00;;;;4975882;28;96759;-67
2021/10/08 08:30:30;;;;;;;18.25;12.27;;;17.80;90.60;18.10;102158.00;;;;4974688;28;96403;-67
2021/10/08 08:32:56;;;;;;;18.05;12.20;;;17.80;90.80;18.10;102158.00;;;;4976123;28;87568;-67
2021/10/08 08:35:21;;;;;;;17.27;11.50;;;17.90;90.70;18.20;102159.00;;;;4975878;28;92194;-66
2021/10/08 08:37:47;;;;;;;23.42;12.10;;;18.00;90.00;18.20;102157.00;;;;4973824;28;115027;-67
2021/10/08 08:40:14;;;;;;;25.25;12.48;;;18.00;89.10;18.20;102166.00;;;;4963447;28;113135;-67
2021/10/08 08:42:40;;;;;;;18.27;11.07;;;18.00;90.00;18.40;102161.00;;;;4975640;28;88006;-66
2021/10/08 08:45:07;;;;;;;15.75;11.63;;;18.10;90.60;18.50;102162.00;;;;4963807;28;98122;-67
2021/10/08 08:47:34;;;;;;;15.80;10.75;;;18.30;88.40;18.60;102162.00;;;;4956982;28;87962;-67
2021/10/08 08:50:00;;;;;;;21.00;10.77;;;18.40;88.50;18.80;102164.00;;;;4955893;28;87671;-67
2021/10/08 08:52:25;;;;;;;25.48;10.77;;;18.50;87.50;19.00;102162.00;;;;4957342;28;86933;-70
2021/10/08 08:54:53;;;;;;;18.10;9.35;;;18.70;87.10;19.30;102153.00;;;;4955323;28;96214;-70
2021/10/08 08:57:21;;;;;;;19.83;10.63;;;19.00;84.60;19.50;102156.00;;;;4957360;28;89062;-70
2021/10/08 09:00:12;;;;;;;20.02;10.15;;;19.20;82.20;19.60;102156.00;;;;4939862;28;88937;-69
2021/10/08 09:02:40;;;;;;;18.77;8.88;;;19.30;81.00;19.90;102160.00;;;;4955982;28;88060;-70
2021/10/08 09:05:17;;;;;;;16.35;9.07;;;19.60;79.10;20.10;102161.00;;;;4959364;28;88977;-70
2021/10/08 09:07:43;;;;;;;14.38;9.43;;;19.80;75.50;20.20;102160.00;;;;4970894;28;88833;-70
2021/10/08 09:10:12;;;;;;;19.02;8.65;;;19.90;73.00;20.30;102162.00;;;;4975954;28;87739;-70
2021/10/08 09:12:40;;;;;;;12.60;8.25;;;20.00;72.10;20.40;102168.00;;;;4976558;28;87983;-69
2021/10/08 09:15:08;;;;;;;10.05;7.97;;;20.10;69.80;20.60;102153.00;;;;4957231;28;88017;-68
2021/10/08 09:17:34;;;;;;;14.88;8.18;;;20.20;69.80;20.80;102151.00;;;;4958578;28;87158;-68
2021/10/08 09:20:14;;;;;;;13.23;7.60;;;20.40;69.30;21.00;102147.00;;;;4975250;28;87692;-69
2021/10/08 09:22:40;;;;;;;19.80;8.95;;;20.60;68.50;21.20;102150.00;;;;4957988;28;88018;-69
2021/10/08 09:25:34;;;;;;;11.15;7.85;;;20.80;65.80;21.20;102160.00;;;;4974466;28;89140;-69
2021/10/08 09:28:10;;;;;;;16.95;8.27;;;21.00;63.20;21.40;102145.00;;;;4957136;28;88795;-69
2021/10/08 09:30:44;;;;;;;11.98;6.90;;;21.00;62.50;21.50;102159.00;;;;4956373;28;87718;-69
2021/10/08 09:33:14;;;;;;;13.52;9.80;;;21.10;62.20;21.70;102155.00;;;;4976325;28;87794;-69
2021/10/08 09:35:41;;;;;;;12.48;8.20;;;21.30;59.80;21.60;102158.00;;;;4960450;28;88964;-69
2021/10/08 09:38:14;;;;;;;9.80;8.40;;;21.30;59.50;21.80;102149.00;;;;4955905;28;96726;-69
2021/10/08 09:40:52;;;;;;;13.57;7.88;;;21.60;59.30;21.80;102152.00;;;;4932344;28;87913;-70
2021/10/08 09:43:26;;;;;;;18.00;8.77;;;21.40;58.30;21.70;102143.00;;;;4957896;28;87581;-69
2021/10/08 09:46:01;;;;;;;15.35;8.95;;;21.40;58.70;21.70;102151.00;;;;4966426;28;87989;-69
2021/10/08 09:48:43;;;;;;;16.60;8.07;;;21.40;58.70;21.80;102152.00;;;;4955656;28;87816;-69
2021/10/08 09:51:16;;;;;;;14.20;9.05;;;21.40;58.60;21.90;102150.00;;;;4938886;28;88798;-69
2021/10/08 09:53:48;;;;;;;11.32;8.15;;;21.50;58.50;22.00;102151.00;;;;4956235;28;87830;-69
2021/10/08 09:56:37;;;;;;;15.25;7.25;;;21.50;58.20;22.10;102158.00;;;;4955198;28;102953;-69
2021/10/08 09:59:05;;;;;;;10.30;7.75;;;21.70;58.20;22.10;102156.00;;;;4956906;28;87825;-69
2021/10/08 10:01:34;;;;;;;14.85;8.25;;;21.70;56.70;22.20;102147.00;;;;4955504;28;93239;-69
2021/10/08 10:04:02;;;;;;;10.85;6.47;;;21.80;56.30;22.20;102153.00;;;;4973531;28;87934;-69
2021/10/08 10:06:27;;;;;;;19.17;6.43;;;21.80;55.70;22.20;102149.00;;;;4955678;28;88140;-69
2021/10/08 10:08:53;;;;;;;11.70;6.53;;;21.80;56.20;22.30;102145.00;;;;4955676;28;87074;-69
2021/10/08 10:11:24;;;;;;;13.60;7.25;;;21.90;56.00;22.40;102140.00;;;;4973740;28;92261;-70
2021/10/08 10:14:00;;;;;;;11.48;6.30;;;22.00;55.60;22.60;102140.00;;;;4975284;28;87812;-69
2021/10/08 10:16:33;;;;;;;12.95;5.80;;;22.10;55.80;22.70;102141.00;;;;4975005;28;89086;-69
2021/10/08 10:19:01;;;;;;;9.43;5.97;;;22.10;55.20;22.90;102139.00;;;;4974421;28;89683;-69
2021/10/08 10:21:31;;;;;;;11.95;6.47;;;22.40;54.10;23.00;102140.00;;;;4975264;28;87943;-69
2021/10/08 10:24:00;;;;;;;9.75;5.47;;;22.50;53.40;23.10;102122.00;;;;4974729;28;87863;-69
2021/10/08 10:26:30;;;;;;;10.30;6.35;;;22.60;51.70;23.00;102141.00;;;;4955059;28;87692;-70
2021/10/08 10:28:59;;;;;;;14.73;5.30;;;22.60;49.80;22.90;102135.00;;;;4954580;28;89045;-69
2021/10/08 10:31:25;;;;;;;10.43;4.57;;;22.50;48.60;22.90;102129.00;;;;4970857;28;88930;-69